This is the latest recevied weather packets stored in our database for station/object LZ3SV-3. If no packets are shown the sender has not sent any weather packets the latest 10 day(s).
| Time | Temp. | Humidity | Pressure | Rain* | Wind** | Luminosity | Snow |
|---|---|---|---|---|---|---|---|
| 1777941680 | 10.56° C | 72% | 989.9 hPa | - | - | - | - |
| 1777925480 | 15° C | 57% | 990.6 hPa | - | - | - | - |
| 1777924280 | 15.56° C | 56% | 990.5 hPa | - | - | - | - |
| 1777921880 | 15.56° C | 54% | 990.5 hPa | - | - | - | - |
| 1777920680 | 15.56° C | 55% | 990.3 hPa | - | - | - | - |
| 1777920079 | 16.11° C | 54% | 990.2 hPa | - | - | - | - |
| 1777913478 | 19.44° C | 43% | 989.4 hPa | - | - | - | - |
| 1777911678 | 20.56° C | 39% | 989.5 hPa | - | - | - | - |
| 1777903877 | 24.44° C | 28% | 989.9 hPa | - | - | - | - |
| 1777887676 | 16.11° C | 35% | 992.2 hPa | - | - | - | - |
| 1777885876 | 15° C | 36% | 992.5 hPa | - | - | - | - |
| 1777870874 | 7.78° C | 57% | 992.6 hPa | - | - | - | - |
| 1777869074 | 7.22° C | 59% | 992.4 hPa | - | - | - | - |
| 1777867273 | 6.67° C | 62% | 992.3 hPa | - | - | - | - |
| 1777861873 | 6.67° C | 62% | 992.2 hPa | - | - | - | - |
| 1777861273 | 6.67° C | 62% | 992.1 hPa | - | - | - | - |
| 1777860673 | 6.67° C | 61% | 992.2 hPa | - | - | - | - |
| 1777852273 | 6.67° C | 64% | 993 hPa | - | - | - | - |
| 1777850473 | 7.22° C | 64% | 993.2 hPa | - | - | - | - |
| 1777849872 | 7.22° C | 65% | 993.2 hPa | - | - | - | - |
| 1777843272 | 7.22° C | 65% | 992.9 hPa | - | - | - | - |
| 1777825871 | 11.11° C | 65% | 993.1 hPa | - | - | - | - |
| 1777824071 | 11.67° C | 59% | 993 hPa | - | - | - | - |
| 1777820471 | 12.22° C | 56% | 993.2 hPa | - | - | - | - |
| 1777811471 | 12.22° C | 49% | 993.7 hPa | - | - | - | - |
* Rain since midnight (hover to see other rain measurements)
** Current wind speed in m/s (hover to see current wind gust speed)